createdAt,value
2018-09-10T00:00:09.029Z,102121.41
2018-09-10T00:02:40.747Z,102117.30
2018-09-10T00:05:09.846Z,102121.09
2018-09-10T00:07:38.898Z,102113.39
2018-09-10T00:10:08.065Z,102115.31
2018-09-10T00:12:37.192Z,102129.59
2018-09-10T00:15:06.432Z,102131.80
2018-09-10T00:17:35.564Z,102141.97
2018-09-10T00:20:04.681Z,102133.43
2018-09-10T00:22:33.881Z,102136.47
2018-09-10T00:25:02.942Z,102139.19
2018-09-10T00:27:31.971Z,102138.64
2018-09-10T00:30:01.564Z,102137.80
2018-09-10T00:32:30.834Z,102139.98
2018-09-10T00:34:59.950Z,102144.39
2018-09-10T00:37:29.043Z,102145.47
2018-09-10T00:39:58.057Z,102153.72
2018-09-10T00:42:27.829Z,102169.38
2018-09-10T00:44:57.327Z,102166.67
2018-09-10T00:47:26.371Z,102163.34
2018-09-10T00:49:55.466Z,102166.09
2018-09-10T00:52:24.524Z,102162.83
2018-09-10T00:54:53.664Z,102149.63
2018-09-10T00:57:22.755Z,102146.38
2018-09-10T00:59:51.831Z,102145.55
2018-09-10T01:02:21.054Z,102149.41
2018-09-10T01:04:51.265Z,102143.08
2018-09-10T01:07:20.311Z,102139.22
2018-09-10T01:09:49.501Z,102144.70
2018-09-10T01:12:18.579Z,102140.84
2018-09-10T01:14:47.657Z,102138.89
2018-09-10T01:17:16.745Z,102141.09
2018-09-10T01:19:45.816Z,102135.89
2018-09-10T01:22:16.166Z,102133.69
2018-09-10T01:24:45.204Z,102131.22
2018-09-10T01:27:14.274Z,102140.01
2018-09-10T01:29:43.328Z,102130.10
2018-09-10T01:32:12.347Z,102144.13
2018-09-10T01:34:46.536Z,102136.69
2018-09-10T01:37:15.730Z,102124.89
2018-09-10T01:39:44.770Z,102126.81
2018-09-10T01:42:15.158Z,102125.98
2018-09-10T01:44:44.236Z,102122.98
2018-09-10T01:47:13.287Z,102114.73
2018-09-10T01:49:42.376Z,102109.78
2018-09-10T01:52:11.376Z,102119.39
2018-09-10T01:54:40.419Z,102119.14
2018-09-10T01:57:09.467Z,102127.42
2018-09-10T01:59:38.534Z,102126.59
2018-09-10T02:02:07.650Z,102123.88
2018-09-10T02:04:36.766Z,102120.08
2018-09-10T02:07:06.633Z,102133.53
2018-09-10T02:09:36.740Z,102141.26
2018-09-10T02:12:07.539Z,102152.50
2018-09-10T02:14:36.572Z,102154.16
2018-09-10T02:17:06.147Z,102165.44
2018-09-10T02:19:35.329Z,102173.42
2018-09-10T02:22:04.521Z,102170.67
2018-09-10T02:24:33.623Z,102177.83
2018-09-10T02:27:02.644Z,102181.97
2018-09-10T02:29:31.715Z,102179.19
2018-09-10T02:32:00.803Z,102182.23
2018-09-10T02:34:29.874Z,102193.19
2018-09-10T02:36:58.997Z,102188.24
2018-09-10T02:39:28.276Z,102172.85
2018-09-10T02:41:58.343Z,102165.16
2018-09-10T02:44:27.369Z,102161.03
2018-09-10T02:46:57.298Z,102158.00
2018-09-10T02:49:26.328Z,102165.95
2018-09-10T02:51:55.338Z,102178.03
2018-09-10T02:54:24.641Z,102169.25
2018-09-10T02:56:53.765Z,102142.34
2018-09-10T02:59:22.822Z,102138.22
2018-09-10T03:01:51.838Z,102143.43
2018-09-10T03:04:22.101Z,102143.17
2018-09-10T03:06:51.110Z,102138.51
2018-09-10T03:09:20.199Z,102146.75
2018-09-10T03:11:49.193Z,102141.54
2018-09-10T03:14:18.355Z,102148.95
2018-09-10T03:16:48.271Z,102138.25
2018-09-10T03:19:17.400Z,102142.40
2018-09-10T03:21:46.498Z,102156.13
2018-09-10T03:24:15.671Z,102159.71
2018-09-10T03:26:44.709Z,102137.98
2018-09-10T03:29:13.829Z,102138.28
2018-09-10T03:31:42.861Z,102134.95
2018-09-10T03:34:11.974Z,102131.41
2018-09-10T03:36:41.025Z,102132.81
2018-09-10T03:39:11.013Z,102128.97
2018-09-10T03:41:40.465Z,102135.30
2018-09-10T03:44:09.556Z,102133.09
2018-09-10T03:46:38.588Z,102139.95
2018-09-10T03:49:07.615Z,102144.08
2018-09-10T03:51:37.596Z,102147.91
2018-09-10T03:54:06.624Z,102141.05
2018-09-10T03:56:35.670Z,102140.77
2018-09-10T03:59:04.689Z,102128.41
2018-09-10T04:01:33.751Z,102114.64
2018-09-10T04:04:02.844Z,102115.47
2018-09-10T04:06:32.143Z,102117.09
2018-09-10T04:09:01.165Z,102125.89
2018-09-10T04:11:30.337Z,102116.59
2018-09-10T04:13:59.353Z,102123.72
2018-09-10T04:16:28.409Z,102132.78
2018-09-10T04:18:57.575Z,102137.16
2018-09-10T04:21:26.696Z,102137.45
2018-09-10T04:23:55.832Z,102136.33
2018-09-10T04:26:24.894Z,102140.45
2018-09-10T04:28:53.932Z,102145.43
2018-09-10T04:31:23.018Z,102144.89
2018-09-10T04:33:52.304Z,102139.67
2018-09-10T04:36:21.365Z,102136.38
2018-09-10T04:38:50.602Z,102138.30
2018-09-10T04:41:19.713Z,102143.48
2018-09-10T04:43:48.749Z,102137.19
2018-09-10T04:46:19.662Z,102138.56
2018-09-10T04:48:48.698Z,102141.30
2018-09-10T04:51:17.826Z,102151.48
2018-09-10T04:53:48.248Z,102147.38
2018-09-10T04:56:18.150Z,102146.28
2018-09-10T04:58:47.174Z,102144.64
2018-09-10T05:01:17.273Z,102145.48
2018-09-10T05:03:46.949Z,102145.19
2018-09-10T05:06:15.996Z,102133.94
2018-09-10T05:08:45.191Z,102126.53
2018-09-10T05:11:14.972Z,102139.17
2018-09-10T05:13:43.977Z,102144.66
2018-09-10T05:16:13.100Z,102140.79
2018-09-10T05:18:42.853Z,102144.11
2018-09-10T05:21:12.083Z,102148.23
2018-09-10T05:23:42.739Z,102148.77
2018-09-10T05:26:11.780Z,102142.44
2018-09-10T05:28:40.859Z,102144.39
2018-09-10T05:31:09.879Z,102143.30
2018-09-10T05:33:38.995Z,102153.73
2018-09-10T05:36:08.017Z,102160.05
2018-09-10T05:38:37.121Z,102167.47
2018-09-10T05:41:06.191Z,102155.11
2018-09-10T05:43:35.272Z,102152.09
2018-09-10T05:46:04.383Z,102163.91
2018-09-10T05:48:34.402Z,102160.06
2018-09-10T05:51:03.740Z,102153.74
2018-09-10T05:53:32.810Z,102166.67
2018-09-10T05:56:02.605Z,102156.77
2018-09-10T05:58:33.804Z,102166.95
2018-09-10T06:01:03.596Z,102174.08
2018-09-10T06:03:32.865Z,102177.62
2018-09-10T06:06:02.715Z,102170.50
2018-09-10T06:08:32.118Z,102169.12
2018-09-10T06:11:02.143Z,102173.24
2018-09-10T06:13:31.129Z,102170.48
2018-09-10T06:16:03.150Z,102178.98
2018-09-10T06:18:32.316Z,102170.19
2018-09-10T06:21:01.399Z,102171.28
2018-09-10T06:23:31.288Z,102162.51
2018-09-10T06:26:00.996Z,102163.61
2018-09-10T06:28:30.074Z,102161.95
2018-09-10T06:30:59.418Z,102154.52
2018-09-10T06:33:29.224Z,102157.23
2018-09-10T06:35:58.560Z,102159.16
2018-09-10T06:38:40.888Z,102166.58
2018-09-10T06:41:39.761Z,102163.00
2018-09-10T06:44:21.867Z,102169.59
2018-09-10T06:47:06.092Z,102167.98
2018-09-10T06:50:01.040Z,102167.98
2018-09-10T06:52:32.358Z,102173.20
2018-09-10T06:55:08.519Z,102172.39
2018-09-10T06:57:47.430Z,102169.64
2018-09-10T07:00:33.243Z,102167.98
2018-09-10T07:03:09.928Z,102161.95
2018-09-10T07:05:51.197Z,102147.39
2018-09-10T07:08:27.051Z,102163.02
2018-09-10T07:11:03.105Z,102166.84
2018-09-10T07:13:42.581Z,102165.70
2018-09-10T07:16:21.431Z,102178.30
2018-09-10T07:18:56.469Z,102184.56
2018-09-10T07:21:36.014Z,102195.53
2018-09-10T07:24:13.769Z,102192.20
2018-09-10T07:27:03.363Z,102190.51
2018-09-10T07:29:32.452Z,102198.98
2018-09-10T07:32:02.549Z,102203.06
2018-09-10T07:34:31.697Z,102193.98
2018-09-10T07:37:02.564Z,102192.86
2018-09-10T07:39:38.383Z,102186.02
2018-09-10T07:42:16.735Z,102190.73
2018-09-10T07:44:45.775Z,102184.72
2018-09-10T07:47:15.746Z,102184.69
2018-09-10T07:49:45.056Z,102191.78
2018-09-10T07:52:16.865Z,102190.95
2018-09-10T07:54:47.465Z,102198.66
2018-09-10T07:57:19.069Z,102193.98
2018-09-10T07:59:48.355Z,102193.70
2018-09-10T08:02:17.694Z,102192.64
2018-09-10T08:04:46.837Z,102199.78
2018-09-10T08:07:16.017Z,102202.81
2018-09-10T08:09:45.536Z,102212.19
2018-09-10T08:12:14.747Z,102216.56
2018-09-10T08:14:43.945Z,102222.61
2018-09-10T08:17:16.426Z,102232.48
2018-09-10T08:19:45.692Z,102235.49
2018-09-10T08:22:14.806Z,102236.32
2018-09-10T08:24:43.953Z,102235.48
2018-09-10T08:27:13.635Z,102232.66
2018-09-10T08:29:42.761Z,102219.66
2018-09-10T08:32:12.364Z,102211.30
2018-09-10T08:34:41.486Z,102205.15
2018-09-10T08:37:10.558Z,102208.39
2018-09-10T08:39:39.717Z,102224.02
2018-09-10T08:42:09.300Z,102227.56
2018-09-10T08:44:38.991Z,102238.51
2018-09-10T08:47:08.109Z,102234.84
2018-09-10T08:49:37.662Z,102239.98
2018-09-10T08:52:06.799Z,102242.44
2018-09-10T08:54:36.287Z,102243.52
2018-09-10T08:57:06.074Z,102250.95
2018-09-10T08:59:36.023Z,102258.13
2018-09-10T09:02:06.127Z,102256.74
2018-09-10T09:04:36.211Z,102259.19
2018-09-10T09:07:13.177Z,102256.87
2018-09-10T09:09:48.423Z,102255.36
2018-09-10T09:12:17.741Z,102264.56
2018-09-10T09:14:46.801Z,102257.02
2018-09-10T09:17:15.979Z,102249.77
2018-09-10T09:22:29.088Z,102252.91
2018-09-10T09:24:59.930Z,102249.83
2018-09-10T09:27:37.183Z,102232.39
2018-09-10T09:30:12.116Z,102233.39
2018-09-10T09:32:41.197Z,102249.59
2018-09-10T09:35:10.654Z,102234.64
2018-09-10T09:37:44.771Z,102240.11
2018-09-10T09:41:17.475Z,102239.26
2018-09-10T09:43:58.422Z,102225.19
2018-09-10T09:46:28.672Z,102226.61
2018-09-10T09:48:58.280Z,102225.86
2018-09-10T09:51:27.346Z,102221.23
2018-09-10T09:53:56.752Z,102227.84
2018-09-10T09:56:25.824Z,102230.36
2018-09-10T09:58:54.903Z,102223.46
2018-09-10T10:01:28.042Z,102227.60
2018-09-10T10:04:07.646Z,102215.43
2018-09-10T10:06:38.046Z,102210.19
2018-09-10T10:09:11.419Z,102197.25
2018-09-10T10:11:41.086Z,102198.11
2018-09-10T10:14:11.258Z,102195.37
2018-09-10T10:16:40.460Z,102208.33
2018-09-10T10:19:10.343Z,102198.67
2018-09-10T10:21:39.402Z,102198.66
2018-09-10T10:24:08.820Z,102204.42
2018-09-10T10:26:38.196Z,102209.91
2018-09-10T10:29:08.206Z,102209.89
2018-09-10T10:31:38.064Z,102211.22
2018-09-10T10:34:07.169Z,102207.91
2018-09-10T10:36:37.188Z,102212.87
2018-09-10T10:39:08.450Z,102210.64
2018-09-10T10:41:37.640Z,102215.80
2018-09-10T10:44:06.781Z,102214.62
2018-09-10T10:46:38.112Z,102213.37
2018-09-10T10:49:07.352Z,102220.72
2018-09-10T10:51:36.581Z,102224.83
2018-09-10T10:54:05.733Z,102223.45
2018-09-10T10:56:34.902Z,102227.84
2018-09-10T10:59:05.021Z,102225.91
2018-09-10T11:01:34.479Z,102220.44
2018-09-10T11:04:06.527Z,102221.82
2018-09-10T11:06:44.506Z,102216.55
2018-09-10T11:09:13.776Z,102218.17
2018-09-10T11:11:42.881Z,102219.53
2018-09-10T11:14:13.361Z,102213.37
2018-09-10T11:16:42.658Z,102220.80
2018-09-10T11:19:11.861Z,102222.70
2018-09-10T11:21:42.084Z,102213.03
2018-09-10T11:24:11.434Z,102212.17
2018-09-10T11:26:40.565Z,102212.17
2018-09-10T11:29:09.715Z,102211.34
2018-09-10T11:31:39.893Z,102209.66
2018-09-10T11:34:09.000Z,102206.04
2018-09-10T11:37:08.854Z,102202.33
2018-09-10T11:39:38.207Z,102201.89
2018-09-10T11:42:07.299Z,102197.66
2018-09-10T11:44:36.982Z,102201.49
2018-09-10T11:47:06.448Z,102198.73
2018-09-10T11:49:35.590Z,102193.83
2018-09-10T11:52:04.770Z,102192.16
2018-09-10T11:54:34.898Z,102188.84
2018-09-10T11:57:04.242Z,102184.40
2018-09-10T11:59:33.460Z,102179.94
2018-09-10T12:02:05.309Z,102180.80
2018-09-10T12:04:34.447Z,102188.55
2018-09-10T12:07:03.642Z,102187.68
2018-09-10T12:09:39.155Z,102198.91
2018-09-10T12:12:11.009Z,102194.14
2018-09-10T12:14:40.768Z,102187.75
2018-09-10T12:17:09.905Z,102192.66
2018-09-10T12:19:46.397Z,102185.76
2018-09-10T12:22:15.567Z,102186.89
2018-09-10T12:24:44.697Z,102192.42
2018-09-10T12:27:14.990Z,102186.62
2018-09-10T12:29:44.120Z,102196.05
2018-09-10T12:32:15.017Z,102196.05
2018-09-10T12:34:44.649Z,102188.83
2018-09-10T12:37:13.988Z,102182.44
2018-09-10T12:39:43.324Z,102188.17
2018-09-10T12:42:12.420Z,102182.65
2018-09-10T12:44:44.714Z,102186.52
2018-09-10T12:47:14.028Z,102187.14
2018-09-10T12:49:43.060Z,102178.39
2018-09-10T12:52:12.159Z,102175.05
2018-09-10T12:54:41.244Z,102182.75
2018-09-10T12:57:11.356Z,102187.66
2018-09-10T12:59:40.785Z,102186.73
2018-09-10T13:02:15.392Z,102196.37
2018-09-10T13:04:52.680Z,102201.55
2018-09-10T13:07:21.753Z,102202.31
2018-09-10T13:09:53.783Z,102214.72
2018-09-10T13:12:22.951Z,102217.92
2018-09-10T13:14:57.220Z,102233.65
2018-09-10T13:17:28.036Z,102241.39
2018-09-10T13:19:57.264Z,102233.41
2018-09-10T13:22:29.813Z,102241.70
2018-09-10T13:25:00.189Z,102238.41
2018-09-10T13:27:29.358Z,102244.19
2018-09-10T13:29:59.654Z,102245.84
2018-09-10T13:32:29.020Z,102232.89
2018-09-10T13:34:58.263Z,102235.38
2018-09-10T13:37:27.411Z,102235.66
2018-09-10T13:39:56.727Z,102233.72
2018-09-10T13:42:25.942Z,102227.60
2018-09-10T13:44:55.039Z,102225.49
2018-09-10T13:47:24.402Z,102227.25
2018-09-10T13:50:11.258Z,102232.57
2018-09-10T13:52:40.636Z,102230.66
2018-09-10T13:55:09.815Z,102211.91
2018-09-10T13:57:38.987Z,102211.14
2018-09-10T14:00:08.818Z,102207.03
2018-09-10T14:02:38.252Z,102194.70
2018-09-10T14:05:07.776Z,102197.01
2018-09-10T14:07:38.392Z,102194.59
2018-09-10T14:10:07.632Z,102191.06
2018-09-10T14:12:36.947Z,102191.12
2018-09-10T14:15:07.433Z,102194.75
2018-09-10T14:17:36.659Z,102186.42
2018-09-10T14:20:06.216Z,102194.06
2018-09-10T14:22:35.366Z,102193.45
2018-09-10T14:25:05.430Z,102194.48
2018-09-10T14:27:34.729Z,102187.27
2018-09-10T14:30:05.260Z,102174.84
2018-09-10T14:32:34.492Z,102169.90
2018-09-10T14:35:03.803Z,102161.64
2018-09-10T14:37:32.930Z,102170.23
2018-09-10T14:40:02.890Z,102176.35
2018-09-10T14:42:32.607Z,102181.11
2018-09-10T14:45:03.382Z,102170.92
2018-09-10T14:47:32.588Z,102172.58
2018-09-10T14:50:02.694Z,102170.06
2018-09-10T14:52:32.206Z,102158.16
2018-09-10T14:55:02.389Z,102163.44
2018-09-10T14:57:32.253Z,102164.61
2018-09-10T15:00:01.618Z,102157.70
2018-09-10T15:02:32.097Z,102162.70
2018-09-10T15:05:01.833Z,102154.73
2018-09-10T15:07:31.009Z,102156.41
2018-09-10T15:10:00.176Z,102146.23
2018-09-10T15:12:29.502Z,102150.92
2018-09-10T15:14:58.591Z,102157.89
2018-09-10T15:17:27.771Z,102159.86
2018-09-10T15:26:04.629Z,102154.46
2018-09-10T15:28:46.827Z,102154.73
2018-09-10T15:31:16.276Z,102153.36
2018-09-10T15:33:45.347Z,102150.05
2018-09-10T15:36:14.971Z,102139.24
2018-09-10T15:38:44.109Z,102140.87
2018-09-10T15:41:49.901Z,102136.73
2018-09-10T15:44:21.566Z,102135.96
2018-09-10T15:46:54.491Z,102129.92
2018-09-10T15:49:23.670Z,102125.84
2018-09-10T15:51:53.001Z,102120.11
2018-09-10T15:54:24.664Z,102120.14
2018-09-10T15:56:54.661Z,102130.94
2018-09-10T15:59:23.954Z,102126.00
2018-09-10T16:01:53.167Z,102127.16
2018-09-10T16:04:22.420Z,102117.28
2018-09-10T16:06:51.664Z,102117.28
2018-09-10T16:09:22.424Z,102120.59
2018-09-10T16:11:52.724Z,102119.22
2018-09-10T16:14:23.193Z,102113.45
2018-09-10T16:16:52.385Z,102118.45
2018-09-10T16:19:21.521Z,102112.38
2018-09-10T16:21:50.890Z,102119.00
2018-09-10T16:24:23.137Z,102116.83
2018-09-10T16:26:52.609Z,102119.06
2018-09-10T16:29:22.291Z,102115.23
2018-09-10T16:31:51.474Z,102114.13
2018-09-10T16:34:20.670Z,102113.11
2018-09-10T16:36:49.709Z,102107.63
2018-09-10T16:39:18.886Z,102108.48
2018-09-10T16:41:48.733Z,102103.02
2018-09-10T16:44:17.873Z,102104.98
2018-09-10T16:46:47.162Z,102094.00
2018-09-10T16:49:16.257Z,102091.80
2018-09-10T16:51:45.353Z,102094.55
2018-09-10T16:54:14.613Z,102099.83
2018-09-10T16:56:43.845Z,102113.89
2018-09-10T16:59:13.384Z,102102.06
2018-09-10T17:01:44.444Z,102103.16
2018-09-10T17:04:13.468Z,102094.15
2018-09-10T17:06:42.490Z,102098.06
2018-09-10T17:09:12.460Z,102092.85
2018-09-10T17:11:41.539Z,102087.89
2018-09-10T17:14:10.610Z,102089.30
2018-09-10T17:16:39.632Z,102096.73
2018-09-10T17:19:08.653Z,102084.33
2018-09-10T17:21:37.728Z,102083.20
2018-09-10T17:24:06.868Z,102091.78
2018-09-10T17:26:35.895Z,102092.33
2018-09-10T17:29:05.140Z,102092.35
2018-09-10T17:31:34.148Z,102087.94
2018-09-10T17:34:08.254Z,102084.66
2018-09-10T17:36:37.499Z,102082.18
2018-09-10T17:39:08.188Z,102081.88
2018-09-10T17:41:37.405Z,102084.88
2018-09-10T17:44:06.717Z,102086.84
2018-09-10T17:46:35.796Z,102080.19
2018-09-10T17:49:04.890Z,102083.20
2018-09-10T17:51:34.270Z,102082.95
2018-09-10T17:54:03.597Z,102076.91
2018-09-10T17:56:32.796Z,102076.91
2018-09-10T17:59:01.920Z,102081.81
2018-09-10T18:01:31.174Z,102079.61
2018-09-10T18:04:00.328Z,102077.68
2018-09-10T18:06:29.384Z,102085.13
2018-09-10T18:08:58.416Z,102083.50
2018-09-10T18:11:28.357Z,102086.01
2018-09-10T18:16:55.744Z,102073.70
2018-09-10T18:19:25.000Z,102076.55
2018-09-10T18:21:54.060Z,102079.88
2018-09-10T18:24:23.126Z,102075.20
2018-09-10T18:26:52.143Z,102081.02
2018-09-10T18:29:21.208Z,102075.50
2018-09-10T18:31:50.241Z,102069.73
2018-09-10T18:34:19.364Z,102069.46
2018-09-10T18:36:48.423Z,102070.59
2018-09-10T18:39:17.519Z,102070.90
2018-09-10T18:41:46.504Z,102075.03
2018-09-10T18:44:15.584Z,102083.00
2018-09-10T18:46:44.650Z,102094.28
2018-09-10T18:49:13.696Z,102077.73
2018-09-10T18:51:45.961Z,102082.42
2018-09-10T18:54:15.912Z,102082.72
2018-09-10T18:56:45.081Z,102082.72
2018-09-10T18:59:14.118Z,102074.51
2018-09-10T19:01:43.196Z,102080.57
2018-09-10T19:04:12.265Z,102074.81
2018-09-10T19:06:41.367Z,102079.44
2018-09-10T19:09:11.817Z,102074.45
2018-09-10T19:11:40.989Z,102062.05
2018-09-10T19:14:10.106Z,102065.94
2018-09-10T19:16:39.961Z,102070.37
2018-09-10T19:19:09.555Z,102065.71
2018-09-10T19:21:40.382Z,102066.78
2018-09-10T19:24:09.372Z,102063.20
2018-09-10T19:26:38.528Z,102060.75
2018-09-10T19:29:07.610Z,102054.41
2018-09-10T19:31:37.211Z,102060.50
2018-09-10T19:34:06.289Z,102057.46
2018-09-10T19:36:35.361Z,102065.21
2018-09-10T19:39:05.246Z,102057.80
2018-09-10T19:41:34.292Z,102068.57
2018-09-10T19:44:04.590Z,102056.47
2018-09-10T19:46:33.656Z,102058.67
2018-09-10T19:49:02.883Z,102063.91
2018-09-10T19:51:32.036Z,102059.23
2018-09-10T19:54:01.833Z,102060.55
2018-09-10T19:56:30.857Z,102063.06
2018-09-10T19:59:06.425Z,102055.92
2018-09-10T20:01:35.514Z,102055.39
2018-09-10T20:04:06.044Z,102051.83
2018-09-10T20:06:35.159Z,102052.44
2018-09-10T20:09:05.117Z,102044.42
2018-09-10T20:11:34.683Z,102041.41
2018-09-10T20:14:03.846Z,102039.51
2018-09-10T20:16:32.941Z,102045.02
2018-09-10T20:19:02.178Z,102038.68
2018-09-10T20:21:31.785Z,102043.92
2018-09-10T20:24:00.863Z,102043.92
2018-09-10T20:26:29.900Z,102050.01
2018-09-10T20:28:58.990Z,102037.38
2018-09-10T20:31:27.982Z,102043.44
2018-09-10T20:34:02.016Z,102040.42
2018-09-10T20:36:31.302Z,102029.34
2018-09-10T20:39:00.356Z,102043.92
2018-09-10T20:41:29.631Z,102037.50
2018-09-10T20:43:58.724Z,102034.72
2018-09-10T20:46:28.056Z,102038.27
2018-09-10T20:48:57.226Z,102032.52
2018-09-10T20:51:26.306Z,102027.52
2018-09-10T20:53:55.381Z,102024.22
2018-09-10T20:56:24.667Z,102019.03
2018-09-10T20:58:53.761Z,102021.27
2018-09-10T21:01:22.914Z,102014.98
2018-09-10T21:03:52.258Z,102015.53
2018-09-10T21:06:21.341Z,102011.12
2018-09-10T21:08:50.405Z,102011.09
2018-09-10T21:11:20.311Z,102014.38
2018-09-10T21:13:49.341Z,102011.86
2018-09-10T21:16:18.409Z,102009.11
2018-09-10T21:18:47.682Z,102012.72
2018-09-10T21:21:16.727Z,102012.47
2018-09-10T21:23:45.780Z,102013.84
2018-09-10T21:26:14.900Z,102008.88
2018-09-10T21:28:43.920Z,102003.07
2018-09-10T21:31:13.058Z,102003.34
2018-09-10T21:33:42.183Z,102005.50
2018-09-10T21:36:11.204Z,102003.34
2018-09-10T21:38:40.397Z,102003.07
2018-09-10T21:41:09.461Z,101998.71
2018-09-10T21:43:39.102Z,101996.54
2018-09-10T21:46:08.322Z,101996.54
2018-09-10T21:48:37.448Z,102001.22
2018-09-10T21:51:06.467Z,101998.49
2018-09-10T21:53:35.565Z,102003.75
2018-09-10T21:56:04.683Z,101999.65
2018-09-10T21:58:33.813Z,101992.52
2018-09-10T22:01:02.950Z,102001.85
2018-09-10T22:03:32.195Z,101995.80
2018-09-10T22:06:01.228Z,101993.34
2018-09-10T22:08:30.436Z,101993.36
2018-09-10T22:10:59.491Z,101992.53
2018-09-10T22:13:29.485Z,101992.53
2018-09-10T22:15:58.536Z,102004.14
2018-09-10T22:18:42.798Z,102001.39
2018-09-10T22:21:21.201Z,102009.13
2018-09-10T22:24:03.610Z,102015.73
2018-09-10T22:26:32.900Z,102008.00
2018-09-10T22:29:17.394Z,102006.59
2018-09-10T22:32:02.968Z,102006.89
2018-09-10T22:34:47.059Z,101990.36
2018-09-10T22:37:31.194Z,101995.05
2018-09-10T22:40:07.497Z,101997.30
2018-09-10T22:42:40.101Z,101994.60
2018-09-10T22:45:27.808Z,101994.38
2018-09-10T22:48:15.596Z,101991.39
2018-09-10T22:50:48.129Z,101997.48
2018-09-10T22:53:21.259Z,101993.09
2018-09-10T22:56:05.218Z,101993.40
2018-09-10T22:58:45.821Z,101987.61
2018-09-10T23:01:30.050Z,101985.70
2018-09-10T23:04:14.928Z,101985.76
2018-09-10T23:07:01.942Z,101980.50
2018-09-10T23:09:47.518Z,101973.89
2018-09-10T23:12:35.489Z,101972.52
2018-09-10T23:15:06.290Z,101974.47
2018-09-10T23:17:35.391Z,101973.09
2018-09-10T23:20:04.752Z,101974.77
2018-09-10T23:22:33.803Z,101967.94
2018-09-10T23:25:03.097Z,101963.25
2018-09-10T23:27:32.208Z,101956.08
2018-09-10T23:30:01.516Z,101956.91
2018-09-10T23:32:30.533Z,101957.39
2018-09-10T23:34:59.611Z,101951.58
2018-09-10T23:37:28.618Z,101948.49
2018-09-10T23:39:58.445Z,101944.89
2018-09-10T23:42:27.517Z,101943.76
2018-09-10T23:44:56.806Z,101941.53
2018-09-10T23:47:25.804Z,101944.83
2018-09-10T23:49:54.839Z,101945.96
2018-09-10T23:52:23.916Z,101939.38
2018-09-10T23:54:53.889Z,101944.91
2018-09-10T23:57:22.884Z,101950.17
2018-09-10T23:59:51.922Z,101946.59
